Time,TemperatureF,DewpointF,PressureIn,WindDirection,WindDirectionDegrees,WindSpeedMPH,WindSpeedGustMPH,Humidity,HourlyPrecipIn,Conditions,Clouds,dailyrainin,SolarRadiationWatts/m^2,SoftwareType,DateUTC
2013-06-06 00:02:00,56.0,36.0,-100.00,SSW,197,0.0,6.0,47,0.00,,,0.00,0.000000,,2013-06-06 06:02:00,
2013-06-06 00:12:00,56.0,36.0,-100.00,SSW,197,0.0,6.0,47,0.00,,,0.00,0.000000,,2013-06-06 06:12:00,
2013-06-06 00:22:00,56.0,36.0,-100.00,SSW,197,0.0,6.0,47,0.00,,,0.00,0.000000,,2013-06-06 06:22:00,
2013-06-06 00:52:00,52.0,35.0,-100.00,SSE,168,0.0,6.0,53,0.00,,,0.00,0.000000,,2013-06-06 06:52:00,
2013-06-06 01:02:00,52.0,35.0,-100.00,SSE,168,0.0,6.0,53,0.00,,,0.00,0.000000,,2013-06-06 07:02:00,
2013-06-06 01:12:00,52.0,35.0,-100.00,SSE,168,0.0,6.0,53,0.00,,,0.00,0.000000,,2013-06-06 07:12:00,
2013-06-06 01:22:00,52.0,35.0,-100.00,SSE,168,0.0,6.0,53,0.00,,,0.00,0.000000,,2013-06-06 07:22:00,
2013-06-06 01:52:00,51.0,35.0,-100.00,SW,234,1.0,4.0,54,0.00,,,0.00,0.000000,,2013-06-06 07:52:00,
2013-06-06 02:02:00,51.0,35.0,-100.00,SW,234,1.0,4.0,54,0.00,,,0.00,0.000000,,2013-06-06 08:02:00,
2013-06-06 02:12:00,51.0,35.0,-100.00,SW,234,1.0,4.0,54,0.00,,,0.00,0.000000,,2013-06-06 08:12:00,
2013-06-06 02:22:00,51.0,35.0,-100.00,SW,234,1.0,4.0,54,0.00,,,0.00,0.000000,,2013-06-06 08:22:00,
2013-06-06 02:52:00,50.0,36.0,-100.00,SE,127,0.0,4.0,59,0.00,,,0.00,0.000000,,2013-06-06 08:52:00,
2013-06-06 03:02:00,50.0,36.0,-100.00,SE,127,0.0,4.0,59,0.00,,,0.00,0.000000,,2013-06-06 09:02:00,
2013-06-06 03:12:00,50.0,36.0,-100.00,SE,127,0.0,4.0,59,0.00,,,0.00,0.000000,,2013-06-06 09:12:00,
2013-06-06 03:22:00,50.0,36.0,-100.00,SE,127,0.0,4.0,59,0.00,,,0.00,0.000000,,2013-06-06 09:22:00,
2013-06-06 03:53:00,49.0,37.0,-100.00,SSE,153,0.0,2.0,64,0.00,,,0.00,0.000000,,2013-06-06 09:53:00,
2013-06-06 04:03:00,49.0,37.0,-100.00,SSE,153,0.0,2.0,64,0.00,,,0.00,0.000000,,2013-06-06 10:03:00,
2013-06-06 04:12:00,49.0,37.0,-100.00,SSE,153,0.0,2.0,64,0.00,,,0.00,0.000000,,2013-06-06 10:12:00,
2013-06-06 04:22:00,49.0,37.0,-100.00,SSE,153,0.0,2.0,64,0.00,,,0.00,0.000000,,2013-06-06 10:22:00,
2013-06-06 04:53:00,46.0,36.0,-100.00,South,183,0.0,0.0,68,0.00,,,0.00,0.000000,,2013-06-06 10:53:00,
2013-06-06 05:02:00,46.0,36.0,-100.00,South,183,0.0,0.0,68,0.00,,,0.00,0.000000,,2013-06-06 11:02:00,
2013-06-06 05:12:00,46.0,36.0,-100.00,South,183,0.0,0.0,68,0.00,,,0.00,0.000000,,2013-06-06 11:12:00,
2013-06-06 05:22:00,46.0,36.0,-100.00,South,183,0.0,0.0,68,0.00,,,0.00,0.000000,,2013-06-06 11:22:00,
2013-06-06 05:52:00,46.0,38.0,-100.00,SSE,149,0.0,0.0,73,0.00,,,0.00,0.000000,,2013-06-06 11:52:00,
2013-06-06 06:02:00,46.0,38.0,-100.00,SSE,149,0.0,0.0,73,0.00,,,0.00,0.000000,,2013-06-06 12:02:00,
2013-06-06 06:12:00,46.0,38.0,-100.00,SSE,149,0.0,0.0,73,0.00,,,0.00,0.000000,,2013-06-06 12:12:00,
2013-06-06 06:22:00,46.0,38.0,-100.00,SSE,149,0.0,0.0,73,0.00,,,0.00,0.000000,,2013-06-06 12:22:00,
2013-06-06 06:53:00,44.0,36.0,-100.00,SSW,208,0.0,0.0,73,0.00,,,0.00,0.000000,,2013-06-06 12:53:00,
2013-06-06 07:03:00,44.0,36.0,-100.00,SSW,208,0.0,0.0,73,0.00,,,0.00,0.000000,,2013-06-06 13:03:00,
2013-06-06 07:12:00,44.0,36.0,-100.00,SSW,208,0.0,0.0,73,0.00,,,0.00,0.000000,,2013-06-06 13:12:00,
2013-06-06 07:22:00,44.0,36.0,-100.00,SSW,208,0.0,0.0,73,0.00,,,0.00,0.000000,,2013-06-06 13:22:00,
2013-06-06 07:53:00,46.0,40.0,-100.00,North,6,0.0,0.0,78,0.00,,,0.00,33.000000,,2013-06-06 13:53:00,
2013-06-06 08:03:00,46.0,40.0,-100.00,North,6,0.0,0.0,78,0.00,,,0.00,33.000000,,2013-06-06 14:03:00,
2013-06-06 08:12:00,46.0,40.0,-100.00,North,6,0.0,0.0,78,0.00,,,0.00,33.000000,,2013-06-06 14:12:00,
2013-06-06 08:22:00,46.0,40.0,-100.00,North,6,0.0,0.0,78,0.00,,,0.00,33.000000,,2013-06-06 14:22:00,
2013-06-06 08:53:00,50.0,39.0,-100.00,SW,226,0.0,0.0,66,0.00,,,-99.99,115.000000,,2013-06-06 14:53:00,
2013-06-06 09:03:00,50.0,39.0,-100.00,SW,226,0.0,0.0,66,0.00,,,-99.99,115.000000,,2013-06-06 15:03:00,
2013-06-06 09:12:00,50.0,39.0,-100.00,SW,226,0.0,0.0,66,0.00,,,-99.99,115.000000,,2013-06-06 15:12:00,
2013-06-06 09:22:00,50.0,39.0,-100.00,SW,226,0.0,0.0,66,0.00,,,-99.99,115.000000,,2013-06-06 15:22:00,
2013-06-06 10:53:00,62.0,45.0,-100.00,North,10,2.0,0.0,53,-99.99,,,0.00,440.000000,,2013-06-06 16:53:00,
2013-06-06 11:03:00,62.0,45.0,-100.00,North,10,2.0,0.0,53,-99.99,,,0.00,440.000000,,2013-06-06 17:03:00,
2013-06-06 11:12:00,62.0,45.0,-100.00,North,10,2.0,0.0,53,-99.99,,,0.00,440.000000,,2013-06-06 17:12:00,
2013-06-06 11:22:00,62.0,45.0,-100.00,North,10,2.0,0.0,53,-99.99,,,0.00,440.000000,,2013-06-06 17:22:00,
2013-06-06 11:53:00,64.0,44.0,-100.00,North,2,2.0,5.0,49,0.00,,,0.00,474.000000,,2013-06-06 17:53:00,
2013-06-06 12:03:00,64.0,44.0,-100.00,North,2,2.0,5.0,49,0.00,,,0.00,474.000000,,2013-06-06 18:03:00,
2013-06-06 12:12:00,64.0,44.0,-100.00,North,2,2.0,5.0,49,0.00,,,0.00,474.000000,,2013-06-06 18:12:00,
2013-06-06 12:22:00,64.0,44.0,-100.00,North,2,2.0,5.0,49,0.00,,,0.00,474.000000,,2013-06-06 18:22:00,
2013-06-06 12:53:00,70.0,42.0,-100.00,North,359,4.0,6.0,36,0.00,,,0.00,680.000000,,2013-06-06 18:53:00,
2013-06-06 13:02:00,70.0,42.0,-100.00,North,359,4.0,6.0,36,0.00,,,0.00,680.000000,,2013-06-06 19:02:00,
2013-06-06 13:12:00,70.0,42.0,-100.00,North,359,4.0,6.0,36,0.00,,,0.00,680.000000,,2013-06-06 19:12:00,
2013-06-06 13:23:00,70.0,42.0,-100.00,North,359,4.0,6.0,36,0.00,,,0.00,680.000000,,2013-06-06 19:23:00,
2013-06-06 13:53:00,73.0,41.0,-100.00,North,353,4.0,7.0,31,0.00,,,0.00,839.000000,,2013-06-06 19:53:00,
2013-06-06 14:03:00,73.0,41.0,-100.00,North,353,4.0,7.0,31,0.00,,,0.00,839.000000,,2013-06-06 20:03:00,
2013-06-06 14:12:00,73.0,41.0,-100.00,North,353,4.0,7.0,31,0.00,,,0.00,839.000000,,2013-06-06 20:12:00,
2013-06-06 14:22:00,73.0,41.0,-100.00,North,353,4.0,7.0,31,0.00,,,0.00,839.000000,,2013-06-06 20:22:00,
2013-06-06 14:53:00,75.0,41.0,-100.00,NNW,340,3.0,10.0,30,0.00,,,0.00,771.000000,,2013-06-06 20:53:00,
2013-06-06 15:03:00,75.0,41.0,-100.00,NNW,340,3.0,10.0,30,0.00,,,0.00,771.000000,,2013-06-06 21:03:00,
2013-06-06 15:12:00,75.0,41.0,-100.00,NNW,340,3.0,10.0,30,0.00,,,0.00,771.000000,,2013-06-06 21:12:00,
2013-06-06 15:22:00,75.0,41.0,-100.00,NNW,340,3.0,10.0,30,0.00,,,0.00,771.000000,,2013-06-06 21:22:00,
2013-06-06 15:53:00,78.0,40.0,-100.00,NW,318,4.0,10.0,26,0.00,,,0.00,883.000000,,2013-06-06 21:53:00,
2013-06-06 16:02:00,78.0,40.0,-100.00,NW,318,4.0,10.0,26,0.00,,,0.00,883.000000,,2013-06-06 22:02:00,
2013-06-06 16:12:00,78.0,40.0,-100.00,NW,318,4.0,10.0,26,0.00,,,0.00,883.000000,,2013-06-06 22:12:00,
2013-06-06 16:23:00,78.0,40.0,-100.00,NW,318,4.0,10.0,26,0.00,,,0.00,883.000000,,2013-06-06 22:23:00,
2013-06-06 16:53:00,80.0,41.0,-100.00,North,354,5.0,9.0,25,0.00,,,0.00,915.000000,,2013-06-06 22:53:00,
2013-06-06 17:02:00,80.0,41.0,-100.00,North,354,5.0,9.0,25,0.00,,,0.00,915.000000,,2013-06-06 23:02:00,
2013-06-06 17:12:00,80.0,41.0,-100.00,North,354,5.0,9.0,25,0.00,,,0.00,915.000000,,2013-06-06 23:12:00,
2013-06-06 17:22:00,80.0,41.0,-100.00,North,354,5.0,9.0,25,0.00,,,0.00,915.000000,,2013-06-06 23:22:00,
2013-06-06 17:52:00,82.0,42.0,-100.00,ENE,63,5.0,13.0,24,0.00,,,0.00,771.000000,,2013-06-06 23:52:00,
2013-06-06 18:02:00,82.0,42.0,-100.00,ENE,63,5.0,13.0,24,0.00,,,0.00,771.000000,,2013-06-07 00:02:00,
2013-06-06 18:12:00,82.0,42.0,-100.00,ENE,63,5.0,13.0,24,0.00,,,0.00,771.000000,,2013-06-07 00:12:00,
2013-06-06 18:22:00,82.0,42.0,-100.00,ENE,63,5.0,13.0,24,0.00,,,0.00,771.000000,,2013-06-07 00:22:00,
2013-06-06 18:52:00,81.0,40.0,-100.00,NNE,12,4.0,13.0,23,0.00,,,0.00,478.000000,,2013-06-07 00:52:00,
2013-06-06 19:02:00,81.0,40.0,-100.00,NNE,12,4.0,13.0,23,0.00,,,0.00,478.000000,,2013-06-07 01:02:00,
2013-06-06 19:12:00,81.0,40.0,-100.00,NNE,12,4.0,13.0,23,0.00,,,0.00,478.000000,,2013-06-07 01:12:00,
2013-06-06 19:22:00,81.0,40.0,-100.00,NNE,12,4.0,13.0,23,0.00,,,0.00,478.000000,,2013-06-07 01:22:00,
2013-06-06 19:52:00,77.0,39.0,-100.00,NNW,346,2.0,10.0,26,0.00,,,0.00,393.000000,,2013-06-07 01:52:00,
2013-06-06 20:02:00,77.0,39.0,-100.00,NNW,346,2.0,10.0,26,0.00,,,0.00,393.000000,,2013-06-07 02:02:00,
2013-06-06 20:12:00,77.0,39.0,-100.00,NNW,346,2.0,10.0,26,0.00,,,0.00,393.000000,,2013-06-07 02:12:00,
2013-06-06 20:22:00,77.0,39.0,-100.00,NNW,346,2.0,10.0,26,0.00,,,0.00,393.000000,,2013-06-07 02:22:00,
2013-06-06 20:52:00,75.0,43.0,-100.00,SW,230,0.0,8.0,32,0.00,,,0.00,167.000000,,2013-06-07 02:52:00,
2013-06-06 21:02:00,75.0,43.0,-100.00,SW,230,0.0,8.0,32,0.00,,,0.00,167.000000,,2013-06-07 03:02:00,
2013-06-06 21:12:00,75.0,43.0,-100.00,SW,230,0.0,8.0,32,0.00,,,0.00,167.000000,,2013-06-07 03:12:00,
2013-06-06 21:22:00,75.0,43.0,-100.00,SW,230,0.0,8.0,32,0.00,,,0.00,167.000000,,2013-06-07 03:22:00,
2013-06-06 21:53:00,69.0,46.0,-100.00,SSW,203,1.0,5.0,43,0.00,,,0.00,63.000000,,2013-06-07 03:53:00,
2013-06-06 22:03:00,69.0,46.0,-100.00,SSW,203,1.0,5.0,43,0.00,,,0.00,63.000000,,2013-06-07 04:03:00,
2013-06-06 22:12:00,69.0,46.0,-100.00,SSW,203,1.0,5.0,43,0.00,,,0.00,63.000000,,2013-06-07 04:12:00,
2013-06-06 22:22:00,69.0,46.0,-100.00,SSW,203,1.0,5.0,43,0.00,,,0.00,63.000000,,2013-06-07 04:22:00,
2013-06-06 22:53:00,63.0,45.0,-100.00,SSW,205,1.0,5.0,52,0.00,,,0.00,3.000000,,2013-06-07 04:53:00,
2013-06-06 23:02:00,63.0,45.0,-100.00,SSW,205,1.0,5.0,52,0.00,,,0.00,3.000000,,2013-06-07 05:02:00,
2013-06-06 23:12:00,63.0,45.0,-100.00,SSW,205,1.0,5.0,52,0.00,,,0.00,3.000000,,2013-06-07 05:12:00,
2013-06-06 23:22:00,63.0,45.0,-100.00,SSW,205,1.0,5.0,52,0.00,,,0.00,3.000000,,2013-06-07 05:22:00,
2013-06-06 23:52:00,59.0,43.0,-100.00,SW,219,0.0,6.0,56,0.00,,,-99.99,0.000000,,2013-06-07 05:52:00,